Pledger, Texas
Current Conditions -  °F | °C
As of 12:35 PM on Thursday 29 Jan 2015 (Local Time) from KBYY Reporting Station
Scattered Clouds Scattered Clouds  
Wind Chill: 74°   Ceiling: Unl
Heat Index: 74°   Visibility: 10mi
Dew Point: 61°   Wind: 5mph
Humidity: 64%   Direction: 210°SSW
Pressure: 30.24"   Gusts: NA
Location:  29.18°N, 95.91°W
Report Text: KBYY 291835Z AUTO 21004KT 10SM SCT030 23/16 A3024 RMK AO2 T02340162
Loading
Personal Weather Stations






























Interactive Weather Map New forecast layout! Learn more

10-Day Weather Forecast

Advertisements
Track Severe Weather on mobile